createdAt,value
2022-07-31T00:00:18.799Z,69.06
2022-07-31T00:01:19.374Z,69.35
2022-07-31T00:02:19.863Z,69.35
2022-07-31T00:03:19.444Z,69.76
2022-07-31T00:04:19.520Z,69.26
2022-07-31T00:05:19.665Z,69.96
2022-07-31T00:06:19.819Z,69.96
2022-07-31T00:07:19.944Z,70.06
2022-07-31T00:08:21.091Z,70.16
2022-07-31T00:09:53.624Z,70.26
2022-07-31T00:10:21.338Z,70.39
2022-07-31T00:11:21.357Z,69.19
2022-07-31T00:12:21.367Z,70.26
2022-07-31T00:13:20.866Z,70.79
2022-07-31T00:14:22.861Z,69.89
2022-07-31T00:15:21.212Z,67.68
2022-07-31T00:16:21.329Z,67.18
2022-07-31T00:17:21.489Z,67.38
2022-07-31T00:18:21.644Z,67.18
2022-07-31T00:19:22.357Z,68.05
2022-07-31T00:20:21.974Z,68.95
2022-07-31T00:21:22.099Z,69.22
2022-07-31T00:22:22.231Z,68.95
2022-07-31T00:23:22.480Z,68.85
2022-07-31T00:24:23.365Z,70.16
2022-07-31T00:25:22.888Z,69.56
2022-07-31T00:26:23.045Z,68.82
2022-07-31T00:27:23.163Z,67.82
2022-07-31T00:28:23.291Z,66.64
2022-07-31T00:29:23.406Z,66.35
2022-07-31T00:30:23.640Z,66.75
2022-07-31T00:31:24.378Z,68.55
2022-07-31T00:32:24.102Z,66.75
2022-07-31T00:33:24.358Z,68.85
2022-07-31T00:34:24.470Z,69.12
2022-07-31T00:35:24.881Z,69.22
2022-07-31T00:36:30.339Z,69.12
2022-07-31T00:37:26.866Z,68.72
2022-07-31T00:38:27.004Z,68.65
2022-07-31T00:39:26.237Z,69.06
2022-07-31T00:40:25.472Z,68.88
2022-07-31T00:41:25.657Z,69.39
2022-07-31T00:42:25.774Z,68.99
2022-07-31T00:43:27.458Z,69.22
2022-07-31T00:44:26.869Z,68.72
2022-07-31T00:45:29.090Z,69.12
2022-07-31T00:46:27.564Z,69.22
2022-07-31T00:47:26.772Z,69.72
2022-07-31T00:48:27.607Z,69.42
2022-07-31T00:49:27.144Z,69.62
2022-07-31T00:50:28.294Z,68.92
2022-07-31T00:51:28.371Z,68.72
2022-07-31T00:52:27.700Z,68.52
2022-07-31T00:53:27.831Z,69.02
2022-07-31T00:54:28.871Z,68.92
2022-07-31T00:55:28.387Z,69.72
2022-07-31T00:56:28.388Z,69.62
2022-07-31T00:57:28.440Z,69.12
2022-07-31T00:58:29.373Z,69.62
2022-07-31T00:59:28.736Z,69.02
2022-07-31T01:00:29.873Z,69.12
2022-07-31T01:01:29.190Z,69.62
2022-07-31T01:02:29.298Z,69.22
2022-07-31T01:03:29.450Z,69.02
2022-07-31T01:04:31.354Z,69.52
2022-07-31T01:05:29.736Z,69.52
2022-07-31T01:06:29.911Z,69.22
2022-07-31T01:07:30.046Z,69.96
2022-07-31T01:08:30.389Z,70.16
2022-07-31T01:09:30.407Z,70.16
2022-07-31T01:10:30.564Z,70.06
2022-07-31T01:11:30.717Z,70.66
2022-07-31T01:12:30.851Z,71.00
2022-07-31T01:13:31.042Z,71.20
2022-07-31T01:14:31.234Z,71.00
2022-07-31T01:15:31.411Z,71.20
2022-07-31T01:16:31.594Z,71.00
2022-07-31T01:17:31.769Z,70.89
2022-07-31T01:18:31.937Z,70.39
2022-07-31T01:19:38.342Z,71.00
2022-07-31T01:20:34.234Z,70.89
2022-07-31T01:21:32.465Z,70.59
2022-07-31T01:22:35.105Z,70.70
2022-07-31T01:23:32.834Z,70.79
2022-07-31T01:24:33.879Z,70.79
2022-07-31T01:25:34.145Z,69.62
2022-07-31T01:26:33.881Z,69.38
2022-07-31T01:27:49.379Z,68.18
2022-07-31T01:28:34.516Z,68.38
2022-07-31T01:29:33.756Z,68.45
2022-07-31T01:30:33.932Z,67.65
2022-07-31T01:31:34.393Z,67.35
2022-07-31T01:32:34.306Z,66.84
2022-07-31T01:33:34.487Z,66.94
2022-07-31T01:34:34.636Z,66.51
2022-07-31T01:35:35.395Z,66.31
2022-07-31T01:36:35.516Z,66.51
2022-07-31T01:37:35.178Z,66.00
2022-07-31T01:38:35.886Z,65.70
2022-07-31T01:39:35.518Z,66.11
2022-07-31T01:40:35.675Z,66.20
2022-07-31T01:41:35.836Z,66.11
2022-07-31T01:42:36.891Z,65.91
2022-07-31T01:43:36.891Z,66.11
2022-07-31T01:44:36.373Z,65.80
2022-07-31T01:45:36.519Z,65.70
2022-07-31T01:46:41.313Z,65.30
2022-07-31T01:47:37.807Z,65.80
2022-07-31T01:48:37.885Z,65.27
2022-07-31T01:49:38.118Z,65.17
2022-07-31T01:50:43.813Z,65.30
2022-07-31T01:51:39.511Z,65.20
2022-07-31T01:52:37.903Z,65.47
2022-07-31T01:53:37.803Z,65.30
2022-07-31T01:54:38.902Z,65.30
2022-07-31T01:56:01.851Z,64.80
2022-07-31T01:56:39.301Z,65.20
2022-07-31T01:57:38.466Z,64.97
2022-07-31T01:58:38.652Z,65.10
2022-07-31T01:59:38.816Z,65.00
2022-07-31T02:00:39.123Z,65.10
2022-07-31T02:01:39.240Z,64.90
2022-07-31T02:02:40.379Z,65.00
2022-07-31T02:03:44.206Z,64.90
2022-07-31T02:04:40.735Z,65.27
2022-07-31T02:05:39.868Z,65.10
2022-07-31T02:06:40.021Z,65.41
2022-07-31T02:07:40.237Z,65.10
2022-07-31T02:08:40.414Z,65.41
2022-07-31T02:09:58.211Z,65.20
2022-07-31T02:10:41.770Z,65.70
2022-07-31T02:11:54.561Z,65.60
2022-07-31T02:12:43.192Z,65.20
2022-07-31T02:13:41.320Z,65.41
2022-07-31T02:14:41.557Z,65.20
2022-07-31T02:15:41.684Z,65.00
2022-07-31T02:16:41.810Z,65.00
2022-07-31T02:17:41.972Z,65.10
2022-07-31T02:18:42.129Z,65.10
2022-07-31T02:19:59.680Z,65.30
2022-07-31T02:20:43.897Z,64.80
2022-07-31T02:21:42.511Z,64.70
2022-07-31T02:22:42.644Z,64.80
2022-07-31T02:23:42.805Z,64.90
2022-07-31T02:24:42.983Z,64.70
2022-07-31T02:25:43.174Z,65.30
2022-07-31T02:26:43.906Z,65.20
2022-07-31T02:27:57.192Z,65.41
2022-07-31T02:28:44.757Z,65.50
2022-07-31T02:29:43.982Z,65.00
2022-07-31T02:30:44.912Z,64.50
2022-07-31T02:31:44.284Z,64.80
2022-07-31T02:32:44.926Z,64.70
2022-07-31T02:33:44.608Z,64.80
2022-07-31T02:34:44.747Z,64.80
2022-07-31T02:35:45.227Z,65.20
2022-07-31T02:36:45.930Z,65.30
2022-07-31T02:37:46.875Z,65.03
2022-07-31T02:38:45.908Z,65.23
2022-07-31T02:39:45.529Z,65.53
2022-07-31T02:40:45.695Z,65.64
2022-07-31T02:41:45.864Z,65.84
2022-07-31T02:42:46.025Z,65.50
2022-07-31T02:43:46.167Z,65.60
2022-07-31T02:44:46.287Z,65.64
2022-07-31T02:45:46.416Z,65.64
2022-07-31T02:46:46.661Z,65.84
2022-07-31T02:47:46.788Z,65.23
2022-07-31T02:48:47.465Z,65.44
2022-07-31T02:49:47.253Z,65.53
2022-07-31T02:50:47.357Z,65.50
2022-07-31T02:51:48.412Z,65.64
2022-07-31T02:52:47.666Z,65.94
2022-07-31T02:53:47.794Z,65.64
2022-07-31T02:54:47.938Z,65.70
2022-07-31T02:55:48.091Z,65.84
2022-07-31T02:56:48.226Z,65.64
2022-07-31T02:57:48.354Z,66.03
2022-07-31T02:58:48.527Z,65.33
2022-07-31T02:59:49.414Z,65.53
2022-07-31T03:00:49.935Z,65.33
2022-07-31T03:01:49.050Z,65.53
2022-07-31T03:02:49.330Z,65.44
2022-07-31T03:03:50.419Z,65.94
2022-07-31T03:04:49.640Z,65.73
2022-07-31T03:05:49.785Z,65.73
2022-07-31T03:06:49.893Z,65.73
2022-07-31T03:07:51.037Z,65.44
2022-07-31T03:08:50.263Z,65.53
2022-07-31T03:09:50.398Z,65.53
2022-07-31T03:10:50.545Z,65.94
2022-07-31T03:11:50.694Z,65.33
2022-07-31T03:12:50.849Z,65.73
2022-07-31T03:13:51.917Z,65.73
2022-07-31T03:14:51.918Z,65.94
2022-07-31T03:15:51.317Z,65.84
2022-07-31T03:16:51.506Z,65.94
2022-07-31T03:17:51.639Z,65.84
2022-07-31T03:18:51.858Z,65.23
2022-07-31T03:19:52.011Z,65.44
2022-07-31T03:20:52.166Z,65.44
2022-07-31T03:21:52.379Z,65.64
2022-07-31T03:22:53.421Z,65.53
2022-07-31T03:23:52.691Z,65.53
2022-07-31T03:24:53.425Z,65.20
2022-07-31T03:25:53.089Z,65.13
2022-07-31T03:26:53.291Z,65.03
2022-07-31T03:27:56.757Z,65.20
2022-07-31T03:28:53.713Z,65.20
2022-07-31T03:29:54.424Z,65.30
2022-07-31T03:30:55.140Z,65.10
2022-07-31T03:31:54.304Z,65.00
2022-07-31T03:32:54.502Z,65.20
2022-07-31T03:33:54.682Z,65.20
2022-07-31T03:34:55.430Z,65.20
2022-07-31T03:35:54.978Z,65.20
2022-07-31T03:36:55.158Z,65.20
2022-07-31T03:37:55.350Z,65.00
2022-07-31T03:38:55.561Z,64.90
2022-07-31T03:39:55.747Z,65.20
2022-07-31T03:40:55.945Z,64.70
2022-07-31T03:41:56.140Z,64.70
2022-07-31T03:42:56.943Z,64.70
2022-07-31T03:43:56.488Z,64.50
2022-07-31T03:44:56.651Z,64.70
2022-07-31T03:45:56.943Z,64.97
2022-07-31T03:46:57.018Z,64.87
2022-07-31T03:47:57.196Z,64.77
2022-07-31T03:48:57.999Z,64.47
2022-07-31T03:49:58.436Z,64.37
2022-07-31T03:50:57.711Z,64.57
2022-07-31T03:51:57.899Z,64.67
2022-07-31T03:52:58.106Z,64.14
2022-07-31T03:53:58.933Z,64.43
2022-07-31T03:54:59.434Z,64.04
2022-07-31T03:55:58.581Z,64.34
2022-07-31T03:56:58.753Z,64.04
2022-07-31T03:57:58.934Z,64.24
2022-07-31T03:58:59.931Z,64.14
2022-07-31T03:59:59.313Z,63.93
2022-07-31T04:00:59.545Z,64.04
2022-07-31T04:01:59.949Z,63.81
2022-07-31T04:02:59.983Z,63.81
2022-07-31T04:04:00.146Z,63.81
2022-07-31T04:05:00.937Z,63.40
2022-07-31T04:06:00.480Z,63.70
2022-07-31T04:07:00.699Z,63.70
2022-07-31T04:08:00.878Z,63.70
2022-07-31T04:09:01.067Z,63.47
2022-07-31T04:10:02.199Z,63.31
2022-07-31T04:11:01.338Z,63.47
2022-07-31T04:12:02.648Z,63.67
2022-07-31T04:13:01.677Z,63.37
2022-07-31T04:14:01.958Z,63.28
2022-07-31T04:15:02.451Z,63.40
2022-07-31T04:16:02.221Z,63.17
2022-07-31T04:17:02.377Z,62.97
2022-07-31T04:18:02.517Z,63.07
2022-07-31T04:19:02.668Z,63.07
2022-07-31T04:20:03.692Z,62.94
2022-07-31T04:21:03.035Z,63.14
2022-07-31T04:22:03.696Z,63.07
2022-07-31T04:23:03.362Z,62.94
2022-07-31T04:24:03.519Z,63.04
2022-07-31T04:25:03.951Z,63.04
2022-07-31T04:26:03.847Z,63.04
2022-07-31T04:27:04.894Z,63.14
2022-07-31T04:28:04.191Z,62.97
2022-07-31T04:29:04.442Z,63.04
2022-07-31T04:30:04.590Z,63.04
2022-07-31T04:31:05.452Z,62.84
2022-07-31T04:32:05.277Z,62.74
2022-07-31T04:33:05.171Z,62.94
2022-07-31T04:34:05.314Z,63.04
2022-07-31T04:35:06.448Z,62.54
2022-07-31T04:36:06.446Z,62.94
2022-07-31T04:37:06.946Z,62.84
2022-07-31T04:38:06.054Z,63.14
2022-07-31T04:39:06.951Z,62.84
2022-07-31T04:40:06.947Z,62.94
2022-07-31T04:41:06.553Z,62.84
2022-07-31T04:42:11.045Z,62.84
2022-07-31T04:43:08.456Z,62.97
2022-07-31T04:44:07.066Z,63.14
2022-07-31T04:45:07.239Z,63.14
2022-07-31T04:46:17.725Z,63.04
2022-07-31T04:47:08.519Z,62.84
2022-07-31T04:48:07.643Z,63.04
2022-07-31T04:49:07.853Z,63.04
2022-07-31T04:50:08.064Z,62.94
2022-07-31T04:51:08.194Z,63.14
2022-07-31T04:52:09.328Z,62.92
2022-07-31T04:53:08.466Z,62.92
2022-07-31T04:54:08.654Z,62.84
2022-07-31T04:55:08.844Z,62.84
2022-07-31T04:56:09.031Z,63.04
2022-07-31T04:57:09.200Z,63.04
2022-07-31T04:58:09.380Z,62.84
2022-07-31T04:59:09.571Z,62.84
2022-07-31T05:00:10.457Z,62.94
2022-07-31T05:01:10.098Z,62.74
2022-07-31T05:02:10.257Z,62.61
2022-07-31T05:03:10.294Z,62.51
2022-07-31T05:04:10.463Z,62.61
2022-07-31T05:05:10.642Z,62.61
2022-07-31T05:06:10.829Z,62.61
2022-07-31T05:07:11.085Z,62.61
2022-07-31T05:08:11.263Z,62.71
2022-07-31T05:09:17.811Z,62.92
2022-07-31T05:10:13.650Z,62.61
2022-07-31T05:11:11.899Z,62.51
2022-07-31T05:12:12.062Z,62.51
2022-07-31T05:13:12.256Z,62.71
2022-07-31T05:14:12.958Z,62.81
2022-07-31T05:15:12.598Z,62.92
2022-07-31T05:16:12.971Z,62.92
2022-07-31T05:17:12.994Z,62.81
2022-07-31T05:18:13.147Z,63.11
2022-07-31T05:19:13.710Z,63.01
2022-07-31T05:20:13.411Z,62.92
2022-07-31T05:21:13.553Z,62.92
2022-07-31T05:22:13.686Z,63.01
2022-07-31T05:23:13.919Z,63.31
2022-07-31T05:24:14.475Z,63.11
2022-07-31T05:25:14.959Z,63.31
2022-07-31T05:26:14.561Z,63.31
2022-07-31T05:27:14.795Z,62.92
2022-07-31T05:28:15.039Z,63.11
2022-07-31T05:29:15.504Z,63.21
2022-07-31T05:30:15.389Z,63.31
2022-07-31T05:31:16.470Z,63.01
2022-07-31T05:32:16.915Z,63.51
2022-07-31T05:33:16.495Z,63.31
2022-07-31T05:34:16.139Z,63.92
2022-07-31T05:35:16.285Z,63.81
2022-07-31T05:36:16.456Z,63.51
2022-07-31T05:37:17.468Z,63.71
2022-07-31T05:38:16.830Z,63.71
2022-07-31T05:39:17.974Z,63.71
2022-07-31T05:40:17.973Z,63.81
2022-07-31T05:41:17.478Z,64.22
2022-07-31T05:42:17.493Z,64.04
2022-07-31T05:43:18.483Z,64.04
2022-07-31T05:44:17.842Z,64.15
2022-07-31T05:45:18.013Z,64.25
2022-07-31T05:46:18.212Z,64.04
2022-07-31T05:47:18.413Z,63.92
2022-07-31T05:48:19.468Z,64.22
2022-07-31T05:49:19.560Z,63.71
2022-07-31T05:50:18.892Z,63.81
2022-07-31T05:51:19.093Z,64.01
2022-07-31T05:52:19.290Z,64.01
2022-07-31T05:53:19.468Z,64.22
2022-07-31T05:54:19.656Z,64.42
2022-07-31T05:55:19.823Z,64.31
2022-07-31T05:56:20.974Z,64.31
2022-07-31T05:57:33.055Z,64.01
2022-07-31T05:58:21.370Z,64.12
2022-07-31T05:59:20.505Z,63.89
2022-07-31T06:00:21.478Z,63.89
2022-07-31T06:01:21.555Z,63.89
2022-07-31T06:02:20.990Z,64.09
2022-07-31T06:03:21.980Z,63.78
2022-07-31T06:04:21.979Z,63.89
2022-07-31T06:05:21.489Z,63.78
2022-07-31T06:06:21.625Z,64.09
2022-07-31T06:07:21.793Z,63.89
2022-07-31T06:08:22.482Z,63.89
2022-07-31T06:09:22.120Z,64.18
2022-07-31T06:10:22.500Z,64.09
2022-07-31T06:11:22.380Z,64.28
2022-07-31T06:12:22.551Z,64.18
2022-07-31T06:13:22.696Z,64.18
2022-07-31T06:14:23.478Z,64.18
2022-07-31T06:15:24.008Z,65.19
2022-07-31T06:16:23.248Z,64.39
2022-07-31T06:17:23.495Z,64.28
2022-07-31T06:18:24.503Z,64.48
2022-07-31T06:19:24.403Z,64.28
2022-07-31T06:20:23.928Z,64.69
2022-07-31T06:21:27.553Z,64.98
2022-07-31T06:22:26.982Z,65.19
2022-07-31T06:23:29.708Z,64.59
2022-07-31T06:24:25.671Z,64.98
2022-07-31T06:25:24.902Z,64.75
2022-07-31T06:26:26.754Z,64.95
2022-07-31T06:27:33.423Z,65.05
2022-07-31T06:28:46.560Z,64.95
2022-07-31T06:29:41.395Z,64.95
2022-07-31T06:30:26.875Z,65.66
2022-07-31T06:31:26.492Z,65.36
2022-07-31T06:32:26.154Z,65.25
2022-07-31T06:33:37.560Z,65.75
2022-07-31T06:34:27.525Z,65.36
2022-07-31T06:35:27.007Z,65.55
2022-07-31T06:36:26.864Z,65.25
2022-07-31T06:37:26.989Z,65.86
2022-07-31T06:38:27.137Z,65.16
2022-07-31T06:39:54.015Z,65.86
2022-07-31T06:40:28.503Z,65.42
2022-07-31T06:41:27.657Z,65.36
2022-07-31T06:42:28.490Z,65.66
2022-07-31T06:43:28.993Z,65.62
2022-07-31T06:44:29.022Z,65.52
2022-07-31T06:45:50.679Z,66.02
2022-07-31T06:46:31.001Z,65.52
2022-07-31T06:47:28.701Z,65.52
2022-07-31T06:48:28.842Z,65.52
2022-07-31T06:49:29.094Z,66.32
2022-07-31T06:50:29.172Z,65.33
2022-07-31T06:51:31.701Z,65.39
2022-07-31T06:52:30.552Z,65.62
2022-07-31T06:53:29.787Z,65.49
2022-07-31T06:54:29.939Z,65.79
2022-07-31T06:55:30.054Z,65.79
2022-07-31T06:56:30.194Z,65.39
2022-07-31T06:57:30.999Z,65.29
2022-07-31T06:58:31.017Z,65.49
2022-07-31T06:59:39.668Z,65.36
2022-07-31T07:00:31.747Z,65.33
2022-07-31T07:01:31.593Z,64.83
2022-07-31T07:02:31.029Z,65.50
2022-07-31T07:03:31.176Z,65.30
2022-07-31T07:04:56.463Z,65.26
2022-07-31T07:05:32.448Z,64.77
2022-07-31T07:06:32.013Z,64.94
2022-07-31T07:07:32.495Z,64.64
2022-07-31T07:08:32.512Z,63.94
2022-07-31T07:09:32.238Z,63.94
2022-07-31T07:10:33.000Z,63.81
2022-07-31T07:11:32.512Z,64.24
2022-07-31T07:12:33.501Z,64.94
2022-07-31T07:13:45.816Z,64.04
2022-07-31T07:14:34.125Z,64.24
2022-07-31T07:15:33.353Z,64.87
2022-07-31T07:16:34.003Z,65.40
2022-07-31T07:17:34.017Z,65.30
2022-07-31T07:18:34.502Z,65.30
2022-07-31T07:19:34.046Z,65.40
2022-07-31T07:20:34.175Z,65.43
2022-07-31T07:21:34.341Z,66.03
2022-07-31T07:22:34.494Z,66.63
2022-07-31T07:23:34.641Z,66.23
2022-07-31T07:24:35.509Z,66.83
2022-07-31T07:25:34.992Z,66.73
2022-07-31T07:26:35.163Z,66.33
2022-07-31T07:27:35.307Z,66.33
2022-07-31T07:28:35.462Z,66.56
2022-07-31T07:29:35.584Z,67.03
2022-07-31T07:30:36.506Z,66.73
2022-07-31T07:31:35.879Z,66.83
2022-07-31T07:32:36.005Z,66.43
2022-07-31T07:33:41.167Z,66.73
2022-07-31T07:34:38.011Z,66.56
2022-07-31T07:35:37.512Z,66.73
2022-07-31T07:36:36.755Z,66.43
2022-07-31T07:37:38.900Z,66.53
2022-07-31T07:38:38.100Z,66.43
2022-07-31T07:39:37.323Z,66.33
2022-07-31T07:40:38.014Z,66.83
2022-07-31T07:41:37.645Z,66.93
2022-07-31T07:42:38.519Z,66.43
2022-07-31T07:43:38.521Z,67.03
2022-07-31T07:44:38.525Z,66.73
2022-07-31T07:45:39.014Z,66.73
2022-07-31T07:46:39.013Z,66.93
2022-07-31T07:48:02.367Z,66.43
2022-07-31T07:48:39.852Z,66.93
2022-07-31T07:49:39.098Z,66.43
2022-07-31T07:50:39.530Z,66.23
2022-07-31T07:52:09.638Z,67.43
2022-07-31T07:52:43.867Z,67.03
2022-07-31T07:53:40.827Z,66.33
2022-07-31T07:54:40.048Z,66.53
2022-07-31T07:55:40.310Z,67.03
2022-07-31T07:56:40.561Z,66.43
2022-07-31T07:57:41.522Z,66.60
2022-07-31T07:58:40.881Z,67.19
2022-07-31T07:59:41.015Z,67.16
2022-07-31T08:00:42.095Z,66.77
2022-07-31T08:01:41.466Z,65.97
2022-07-31T08:02:41.522Z,65.90
2022-07-31T08:03:49.763Z,66.50
2022-07-31T08:04:47.279Z,67.23
2022-07-31T08:05:42.940Z,67.33
2022-07-31T08:06:42.197Z,67.10
2022-07-31T08:07:43.097Z,66.89
2022-07-31T08:08:42.560Z,66.60
2022-07-31T08:09:42.706Z,66.39
2022-07-31T08:10:43.521Z,66.60
2022-07-31T08:11:43.060Z,66.50
2022-07-31T08:12:43.244Z,66.20
2022-07-31T08:13:47.896Z,66.60
2022-07-31T08:14:45.607Z,67.19
2022-07-31T08:15:43.837Z,67.30
2022-07-31T08:16:44.527Z,67.10
2022-07-31T08:17:44.223Z,67.86
2022-07-31T08:18:44.371Z,68.06
2022-07-31T08:19:48.241Z,66.86
2022-07-31T08:20:46.656Z,67.13
2022-07-31T08:21:44.775Z,66.77
2022-07-31T08:22:45.039Z,67.03
2022-07-31T08:23:45.081Z,66.86
2022-07-31T08:24:46.030Z,67.07
2022-07-31T08:25:45.425Z,66.77
2022-07-31T08:26:45.602Z,66.47
2022-07-31T08:27:47.939Z,68.19
2022-07-31T08:28:49.969Z,67.86
2022-07-31T08:29:46.205Z,67.80
2022-07-31T08:30:46.348Z,67.76
2022-07-31T08:31:49.412Z,67.80
2022-07-31T08:32:47.090Z,67.16
2022-07-31T08:33:47.563Z,67.66
2022-07-31T08:34:46.948Z,67.66
2022-07-31T08:35:50.443Z,67.26
2022-07-31T08:36:48.042Z,67.16
2022-07-31T08:38:01.361Z,67.07
2022-07-31T08:38:48.597Z,67.33
2022-07-31T08:39:47.756Z,68.03
2022-07-31T08:40:47.891Z,67.63
2022-07-31T08:41:48.039Z,65.94
2022-07-31T08:42:48.233Z,66.43
2022-07-31T08:44:02.574Z,66.83
2022-07-31T08:44:50.542Z,66.73
2022-07-31T08:45:49.535Z,66.93
2022-07-31T08:46:49.047Z,66.63
2022-07-31T08:47:49.552Z,66.83
2022-07-31T08:48:49.381Z,66.73
2022-07-31T08:49:49.453Z,67.03
2022-07-31T08:50:53.777Z,68.03
2022-07-31T08:51:52.760Z,66.20
2022-07-31T08:52:50.538Z,65.91
2022-07-31T08:53:50.180Z,65.61
2022-07-31T08:54:50.357Z,66.53
2022-07-31T08:55:56.871Z,65.73
2022-07-31T08:56:51.669Z,66.33
2022-07-31T08:57:50.794Z,66.13
2022-07-31T08:58:51.569Z,66.43
2022-07-31T08:59:51.087Z,66.33
2022-07-31T09:00:51.304Z,66.53
2022-07-31T09:01:52.060Z,66.93
2022-07-31T09:02:51.537Z,67.90
2022-07-31T09:03:52.540Z,67.10
2022-07-31T09:04:52.795Z,67.80
2022-07-31T09:05:54.062Z,66.73
2022-07-31T09:06:52.333Z,67.03
2022-07-31T09:07:52.489Z,66.63
2022-07-31T09:08:52.670Z,67.23
2022-07-31T09:09:53.553Z,67.33
2022-07-31T09:10:53.082Z,67.93
2022-07-31T09:11:53.251Z,67.53
2022-07-31T09:12:53.413Z,67.57
2022-07-31T09:14:01.955Z,67.57
2022-07-31T09:14:55.546Z,67.86
2022-07-31T09:15:54.064Z,68.06
2022-07-31T09:16:54.231Z,67.76
2022-07-31T09:17:54.510Z,67.66
2022-07-31T09:18:56.551Z,68.70
2022-07-31T09:19:55.216Z,68.43
2022-07-31T09:20:54.906Z,68.40
2022-07-31T09:21:55.063Z,68.82
2022-07-31T09:22:55.241Z,68.99
2022-07-31T09:23:55.424Z,68.93
2022-07-31T09:24:56.547Z,69.32
2022-07-31T09:25:55.879Z,69.62
2022-07-31T09:26:56.021Z,69.73
2022-07-31T09:27:56.187Z,69.82
2022-07-31T09:28:56.366Z,69.73
2022-07-31T09:29:57.057Z,69.29
2022-07-31T09:30:57.553Z,69.93
2022-07-31T09:31:57.577Z,69.23
2022-07-31T09:32:58.059Z,69.69
2022-07-31T09:33:57.323Z,69.20
2022-07-31T09:34:57.467Z,69.02
2022-07-31T09:35:57.625Z,69.43
2022-07-31T09:36:57.766Z,69.32
2022-07-31T09:37:57.893Z,69.02
2022-07-31T09:38:58.038Z,68.73
2022-07-31T09:40:00.076Z,68.59
2022-07-31T09:40:58.567Z,68.89
2022-07-31T09:42:01.839Z,68.89
2022-07-31T09:42:59.767Z,69.13
2022-07-31T09:43:58.875Z,69.73
2022-07-31T09:44:59.559Z,70.12
2022-07-31T09:45:59.180Z,69.62
2022-07-31T09:47:00.072Z,69.43
2022-07-31T09:47:59.438Z,69.73
2022-07-31T09:49:00.400Z,69.62
2022-07-31T09:49:59.710Z,69.02
2022-07-31T09:50:59.870Z,69.73
2022-07-31T09:52:00.020Z,69.73
2022-07-31T09:53:00.154Z,69.43
2022-07-31T09:54:01.066Z,69.13
2022-07-31T09:55:00.417Z,69.73
2022-07-31T09:56:01.588Z,68.89
2022-07-31T09:57:01.283Z,69.49
2022-07-31T09:58:01.573Z,69.20
2022-07-31T09:59:01.055Z,68.40
2022-07-31T10:00:01.196Z,69.32
2022-07-31T10:01:02.158Z,68.82
2022-07-31T10:02:01.475Z,69.53
2022-07-31T10:03:01.644Z,69.93
2022-07-31T10:04:02.584Z,69.23
2022-07-31T10:05:02.582Z,69.20
2022-07-31T10:06:02.124Z,69.32
2022-07-31T10:07:02.762Z,68.99
2022-07-31T10:08:02.456Z,67.69
2022-07-31T10:09:02.592Z,68.70
2022-07-31T10:10:03.569Z,68.29
2022-07-31T10:11:02.953Z,67.80
2022-07-31T10:12:03.097Z,68.10
2022-07-31T10:13:03.237Z,67.99
2022-07-31T10:14:03.475Z,67.60
2022-07-31T10:15:04.574Z,67.96
2022-07-31T10:16:04.095Z,68.10
2022-07-31T10:17:05.064Z,68.49
2022-07-31T10:18:04.136Z,68.36
2022-07-31T10:19:04.583Z,68.16
2022-07-31T10:20:04.454Z,67.83
2022-07-31T10:21:04.592Z,65.94
2022-07-31T10:22:05.081Z,66.43
2022-07-31T10:23:04.941Z,66.53
2022-07-31T10:24:05.062Z,66.53
2022-07-31T10:25:05.193Z,66.33
2022-07-31T10:26:06.076Z,66.50
2022-07-31T10:27:09.087Z,65.34
2022-07-31T10:28:05.727Z,64.74
2022-07-31T10:29:06.086Z,65.14
2022-07-31T10:30:06.113Z,65.04
2022-07-31T10:31:06.231Z,65.61
2022-07-31T10:32:06.362Z,65.91
2022-07-31T10:33:27.857Z,65.80
2022-07-31T10:34:08.691Z,66.47
2022-07-31T10:35:06.920Z,65.01
2022-07-31T10:36:07.578Z,64.71
2022-07-31T10:37:11.011Z,66.10
2022-07-31T10:38:07.595Z,66.40
2022-07-31T10:39:08.090Z,66.10
2022-07-31T10:40:08.095Z,65.41
2022-07-31T10:41:07.862Z,66.20
2022-07-31T10:42:08.027Z,65.91
2022-07-31T10:43:08.589Z,65.70
2022-07-31T10:44:08.340Z,65.20
2022-07-31T10:45:08.519Z,64.81
2022-07-31T10:46:08.673Z,65.91
2022-07-31T10:47:08.806Z,65.31
2022-07-31T10:48:09.585Z,65.91
2022-07-31T10:49:09.221Z,64.67
2022-07-31T10:50:09.356Z,65.27
2022-07-31T10:51:10.077Z,65.27
2022-07-31T10:52:09.698Z,63.68
2022-07-31T10:53:09.938Z,64.01
2022-07-31T10:54:10.137Z,64.01
2022-07-31T10:55:10.216Z,64.71
2022-07-31T10:56:11.085Z,65.08
2022-07-31T10:57:11.097Z,64.67
2022-07-31T10:58:10.614Z,65.77
2022-07-31T10:59:11.151Z,65.37
2022-07-31T11:00:10.911Z,64.84
2022-07-31T11:01:11.065Z,65.37
2022-07-31T11:02:12.257Z,64.67
2022-07-31T11:03:12.053Z,64.18
2022-07-31T11:04:11.454Z,64.28
2022-07-31T11:05:11.595Z,65.08
2022-07-31T11:06:11.757Z,64.67
2022-07-31T11:07:12.592Z,64.97
2022-07-31T11:08:12.018Z,64.51
2022-07-31T11:09:13.100Z,65.27
2022-07-31T11:10:13.088Z,65.67
2022-07-31T11:11:12.604Z,64.78
2022-07-31T11:12:12.605Z,63.88
2022-07-31T11:13:12.742Z,64.28
2022-07-31T11:14:12.875Z,64.54
2022-07-31T11:15:13.598Z,63.95
2022-07-31T11:16:13.244Z,64.64
2022-07-31T11:17:14.093Z,64.15
2022-07-31T11:18:22.299Z,64.04
2022-07-31T11:19:15.117Z,64.15
2022-07-31T11:20:14.593Z,64.84
2022-07-31T11:21:37.680Z,64.34
2022-07-31T11:22:31.607Z,64.72
2022-07-31T11:23:15.614Z,64.91
2022-07-31T11:24:14.870Z,63.92
2022-07-31T11:25:15.027Z,63.69
2022-07-31T11:26:15.203Z,63.29
2022-07-31T11:27:16.098Z,63.26
2022-07-31T11:28:15.493Z,63.26
2022-07-31T11:30:02.011Z,63.29
2022-07-31T11:30:16.805Z,63.09
2022-07-31T11:31:15.938Z,63.39
2022-07-31T11:32:16.132Z,63.39
2022-07-31T11:33:17.118Z,63.32
2022-07-31T11:34:17.100Z,63.12
2022-07-31T11:35:17.612Z,63.42
2022-07-31T11:36:17.601Z,63.22
2022-07-31T11:37:17.171Z,64.04
2022-07-31T11:38:17.215Z,63.95
2022-07-31T11:39:18.106Z,64.64
2022-07-31T11:40:17.736Z,63.95
2022-07-31T11:41:17.659Z,64.15
2022-07-31T11:42:19.109Z,64.54
2022-07-31T11:43:26.153Z,64.75
2022-07-31T11:44:20.141Z,64.34
2022-07-31T11:45:18.239Z,65.24
2022-07-31T11:46:19.102Z,65.11
2022-07-31T11:48:09.762Z,64.81
2022-07-31T11:48:20.843Z,64.61
2022-07-31T11:49:19.132Z,64.58
2022-07-31T11:50:20.099Z,64.58
2022-07-31T11:51:19.544Z,64.58
2022-07-31T11:52:31.193Z,63.69
2022-07-31T11:53:20.812Z,64.15
2022-07-31T11:54:20.068Z,63.29
2022-07-31T11:55:20.223Z,63.76
2022-07-31T11:56:20.351Z,63.46
2022-07-31T11:57:20.520Z,63.98
2022-07-31T11:58:20.698Z,64.22
2022-07-31T11:59:44.912Z,64.29
2022-07-31T12:00:27.091Z,63.57
2022-07-31T12:01:22.203Z,62.84
2022-07-31T12:02:21.638Z,60.63
2022-07-31T12:03:21.665Z,60.83
2022-07-31T12:04:21.868Z,60.80
2022-07-31T12:05:38.354Z,60.40
2022-07-31T12:06:23.620Z,60.30
2022-07-31T12:07:22.460Z,61.52
2022-07-31T12:08:23.712Z,60.96
2022-07-31T12:10:02.789Z,62.45
2022-07-31T12:10:23.622Z,61.68
2022-07-31T12:11:23.628Z,62.70
2022-07-31T12:12:23.384Z,62.60
2022-07-31T12:13:23.622Z,62.40
2022-07-31T12:14:24.765Z,62.18
2022-07-31T12:15:24.000Z,62.27
2022-07-31T12:16:24.140Z,61.98
2022-07-31T12:17:25.139Z,62.18
2022-07-31T12:18:24.409Z,62.57
2022-07-31T12:19:24.635Z,62.30
2022-07-31T12:20:34.908Z,62.40
2022-07-31T12:21:26.922Z,63.20
2022-07-31T12:22:25.118Z,63.00
2022-07-31T12:23:38.628Z,63.20
2022-07-31T12:24:26.702Z,63.20
2022-07-31T12:25:25.701Z,63.10
2022-07-31T12:26:25.866Z,62.60
2022-07-31T12:27:26.045Z,61.71
2022-07-31T12:28:26.488Z,62.60
2022-07-31T12:29:26.311Z,62.01
2022-07-31T12:30:29.981Z,61.61
2022-07-31T12:31:28.647Z,61.41
2022-07-31T12:32:27.835Z,61.61
2022-07-31T12:33:27.046Z,61.71
2022-07-31T12:34:28.119Z,61.80
2022-07-31T12:35:28.122Z,62.10
2022-07-31T12:36:28.585Z,63.06
2022-07-31T12:37:27.817Z,62.76
2022-07-31T12:38:47.690Z,62.66
2022-07-31T12:39:54.112Z,63.56
2022-07-31T12:40:29.325Z,63.46
2022-07-31T12:41:29.129Z,63.43
2022-07-31T12:42:30.891Z,63.46
2022-07-31T12:43:28.958Z,63.33
2022-07-31T12:44:29.104Z,63.56
2022-07-31T12:45:30.128Z,63.23
2022-07-31T12:46:29.362Z,63.33
2022-07-31T12:47:29.552Z,63.23
2022-07-31T12:48:29.659Z,63.73
2022-07-31T12:49:30.685Z,63.43
2022-07-31T12:50:29.992Z,63.43
2022-07-31T12:51:45.254Z,63.23
2022-07-31T12:52:31.267Z,63.53
2022-07-31T12:53:30.400Z,63.53
2022-07-31T12:54:31.571Z,63.70